Time;durP1;ratioP1;P1;durP2;ratioP2;P2;SDS_P1;SDS_P2;PMS_P1;PMS_P2;Temp;Humidity;BMP_temperature;BMP_pressure;BME280_temperature;BME280_humidity;BME280_pressure;Samples;Min_cycle;Max_cycle;Signal;HPM_P1;HPM_P2
2021/12/18 00:01:24;;;;;;;27.73;14.37;;;;;;;3.06;100.00;99719.63;4938833;29;20200;-88
2021/12/18 00:03:51;;;;;;;24.23;12.60;;;;;;;1.23;100.00;99408.81;4921966;29;20890;-88
2021/12/18 00:06:18;;;;;;;27.03;14.17;;;;;;;2.69;100.00;99660.91;4947585;29;20145;-87
2021/12/18 00:08:44;;;;;;;31.30;16.83;;;;;;;1.77;100.00;99512.06;4949813;29;20412;-88
2021/12/18 00:11:11;;;;;;;26.30;15.00;;;;;;;2.91;100.00;99679.31;4929307;29;20425;-90
2021/12/18 00:13:37;;;;;;;16.03;7.60;;;;;;;-0.86;100.00;99052.44;4940361;29;20225;-87
2021/12/18 00:16:03;;;;;;;23.13;12.37;;;;;;;0.58;100.00;99327.16;4940576;29;20942;-88
2021/12/18 00:18:30;;;;;;;21.17;11.37;;;;;;;1.44;100.00;99477.84;4922966;29;20212;-86
2021/12/18 00:20:57;;;;;;;17.53;7.43;;;;;;;2.46;100.00;99613.25;4939082;29;20409;-88
2021/12/18 00:23:23;;;;;;;17.67;8.17;;;;;;;2.77;100.00;99715.75;4940194;29;20497;-87
2021/12/18 00:25:48;;;;;;;17.13;8.37;;;;;;;1.75;100.00;99523.56;4923263;29;20421;-87
2021/12/18 00:28:14;;;;;;;17.63;8.07;;;;;;;1.46;100.00;99463.88;4906034;29;20235;-89
2021/12/18 00:30:39;;;;;;;26.27;12.30;;;;;;;2.54;100.00;99649.69;4939055;29;20170;-89
2021/12/18 00:33:05;;;;;;;21.97;10.70;;;;;;;3.06;100.00;99718.00;4923068;29;20173;-88
2021/12/18 00:35:33;;;;;;;26.73;12.80;;;;;;;1.71;100.00;99519.94;4938180;29;20173;-86
2021/12/18 00:38:03;;;;;;;25.83;12.87;;;;;;;1.51;100.00;99487.53;4939655;29;20416;-88
2021/12/18 00:40:42;;;;;;;24.37;12.40;;;;;;;1.79;100.00;99551.38;4940192;29;20472;-89
2021/12/18 00:43:21;;;;;;;24.40;12.20;;;;;;;1.62;100.00;99496.75;4911555;29;20472;-89
2021/12/18 00:45:46;;;;;;;45.03;20.03;;;;;;;0.53;100.00;99308.50;4940297;29;20413;-86
2021/12/18 00:48:12;;;;;;;34.37;16.40;;;;;;;0.81;100.00;99353.91;4922229;29;20413;-88
2021/12/18 00:50:37;;;;;;;39.60;18.00;;;;;;;3.16;100.00;99735.44;4939124;29;20634;-88
2021/12/18 00:53:03;;;;;;;36.70;17.40;;;;;;;1.00;100.00;99348.78;4922285;29;20173;-88
2021/12/18 00:55:28;;;;;;;34.70;14.33;;;;;;;3.01;100.00;99693.41;4939339;29;20200;-89
2021/12/18 00:57:54;;;;;;;18.30;9.00;;;;;;;0.47;100.00;99273.13;4921435;29;20193;-88
2021/12/18 01:00:23;;;;;;;15.87;7.77;;;;;;;1.00;100.00;99372.09;4936208;29;20573;-88
2021/12/18 01:02:58;;;;;;;17.40;7.77;;;;;;;2.90;100.00;99718.44;4936773;29;20285;-88
2021/12/18 01:05:25;;;;;;;14.80;7.57;;;;;;;1.19;100.00;99416.78;4936280;29;20465;-89
2021/12/18 01:07:56;;;;;;;14.10;7.13;;;;;;;2.79;100.00;99691.72;4936444;29;20412;-87
2021/12/18 01:10:41;;;;;;;20.70;9.73;;;;;;;2.13;100.00;99613.97;4936042;29;20444;-88
2021/12/18 01:13:10;;;;;;;19.93;10.33;;;;;;;1.37;100.00;99475.63;4937983;29;20413;-88
2021/12/18 01:15:41;;;;;;;18.33;9.30;;;;;;;2.09;100.00;99596.97;4921962;29;20520;-86
2021/12/18 01:23:36;;;;;;;26.20;12.03;;;;;;;2.24;100.00;99604.09;4928985;29;20483;-87
2021/12/18 01:26:03;;;;;;;21.53;9.90;;;;;;;2.80;100.00;99698.47;4923128;29;20432;-88
2021/12/18 01:28:30;;;;;;;26.33;10.50;;;;;;;2.86;100.00;99706.44;4921580;29;20422;-88
2021/12/18 01:30:56;;;;;;;22.13;10.13;;;;;;;1.30;100.00;99420.13;4932212;29;20437;-87
2021/12/18 01:33:22;;;;;;;21.07;9.67;;;;;;;1.45;100.00;99477.09;4936228;29;20453;-88
2021/12/18 01:35:48;;;;;;;28.07;10.73;;;;;;;2.33;100.00;99613.94;4937325;29;20473;-88
2021/12/18 01:38:15;;;;;;;19.83;9.97;;;;;;;1.16;100.00;99419.03;4922593;29;20183;-88
2021/12/18 01:40:42;;;;;;;21.67;10.40;;;;;;;1.33;100.00;99421.25;4921257;29;20501;-88
2021/12/18 01:53:54;;;;;;;26.23;12.70;;;;;;;2.85;100.00;99631.34;4862807;29;20427;-88
2021/12/18 01:56:19;;;;;;;25.53;12.53;;;;;;;2.26;100.00;99541.75;4862602;29;20200;-88
2021/12/18 01:58:47;;;;;;;25.30;12.77;;;;;;;2.78;100.00;99637.47;4846671;29;20448;-88
2021/12/18 02:01:14;;;;;;;27.47;14.83;;;;;;;3.01;100.00;99695.91;4862315;29;20195;-88
2021/12/18 02:03:41;;;;;;;28.33;14.70;;;;;;;2.31;100.00;99605.41;4862250;29;20429;-89
2021/12/18 02:06:08;;;;;;;29.10;14.67;;;;;;;2.96;100.00;99691.44;4862920;29;21035;-89
2021/12/18 02:08:38;;;;;;;26.53;13.33;;;;;;;2.81;100.00;99672.72;4864329;29;20531;-88
2021/12/18 02:11:25;;;;;;;23.60;12.90;;;;;;;3.04;100.00;99696.13;4864763;29;20421;-87
2021/12/18 02:14:22;;;;;;;28.00;14.37;;;;;;;3.02;100.00;99685.16;4875113;29;20852;-88
2021/12/18 02:19:48;;;;;;;38.10;18.90;;;;;;;2.36;100.00;99591.69;4847558;29;20417;-89
2021/12/18 02:22:15;;;;;;;37.87;19.00;;;;;;;2.36;100.00;99579.19;4828773;29;20484;-88
2021/12/18 02:24:40;;;;;;;38.17;18.97;;;;;;;1.77;100.00;99478.03;4843799;29;20489;-87
2021/12/18 02:27:06;;;;;;;37.10;18.67;;;;;;;1.72;100.00;99481.78;4855486;29;20527;-89
2021/12/18 02:29:33;;;;;;;36.53;18.57;;;;;;;2.52;100.00;99598.75;4880706;29;20625;-87
2021/12/18 02:31:59;;;;;;;33.40;17.67;;;;;;;2.54;100.00;99615.59;4850265;29;20230;-88
2021/12/18 02:34:29;;;;;;;37.20;18.47;;;;;;;1.19;100.00;99407.69;4863861;29;20980;-87
2021/12/18 02:37:01;;;;;;;32.50;16.10;;;;;;;2.48;100.00;99612.63;4864999;29;20880;-88
2021/12/18 02:42:11;;;;;;;40.80;20.13;;;;;;;1.22;100.00;99391.22;4882803;29;20940;-87
2021/12/18 02:44:41;;;;;;;74.47;36.70;;;;;;;2.51;100.00;99622.84;5059436;23;20583;-87
2021/12/18 02:47:08;;;;;;;59.23;30.53;;;;;;;2.26;100.00;99574.22;4940421;29;20441;-88
2021/12/18 02:49:35;;;;;;;48.60;24.03;;;;;;;2.47;100.00;99615.88;4922172;29;20434;-87
2021/12/18 02:52:01;;;;;;;40.00;20.87;;;;;;;1.12;100.00;99405.47;4921782;29;20441;-87
2021/12/18 02:54:27;;;;;;;38.43;19.13;;;;;;;2.09;100.00;99547.03;4921153;29;20444;-88
2021/12/18 02:56:53;;;;;;;34.73;16.97;;;;;;;1.75;100.00;99523.56;4938948;29;20178;-89
2021/12/18 02:59:19;;;;;;;37.83;18.13;;;;;;;2.23;100.00;99612.31;4936658;29;20964;-87
2021/12/18 03:01:45;;;;;;;35.03;17.83;;;;;;;2.28;100.00;99613.53;4936564;29;20565;-89
2021/12/18 03:04:29;;;;;;;34.60;17.00;;;;;;;1.10;100.00;99406.06;4920588;29;20432;-88
2021/12/18 03:06:59;;;;;;;33.17;17.33;;;;;;;2.18;100.00;99592.72;4937691;29;20189;-88
2021/12/18 03:09:52;;;;;;;27.43;14.93;;;;;;;1.35;100.00;99499.53;4938097;29;20915;-88
2021/12/18 03:25:56;;;;;;;25.13;12.57;;;;;;;2.06;100.00;99632.56;4938010;29;20410;-90
2021/12/18 03:28:22;;;;;;;30.43;15.60;;;;;;;1.73;100.00;99565.84;4920652;29;20416;-89
2021/12/18 03:30:47;;;;;;;43.87;22.87;;;;;;;2.17;100.00;99629.31;4921158;29;20417;-89
2021/12/18 03:33:13;;;;;;;33.93;17.83;;;;;;;1.26;100.00;99453.94;4920490;29;20173;-89
2021/12/18 03:35:38;;;;;;;30.93;15.30;;;;;;;2.18;100.00;99590.22;4920395;29;20173;-89
2021/12/18 03:38:05;;;;;;;33.03;16.13;;;;;;;2.86;100.00;99691.44;4920428;29;20185;-88
2021/12/18 03:40:32;;;;;;;30.53;15.50;;;;;;;2.28;100.00;99575.25;4936881;29;20257;-88
2021/12/18 03:42:59;;;;;;;36.87;19.70;;;;;;;2.59;100.00;99623.44;4937410;29;20504;-87
2021/12/18 03:45:24;;;;;;;39.73;21.33;;;;;;;2.97;100.00;99695.66;4919649;29;21010;-89
2021/12/18 03:47:52;;;;;;;39.37;18.97;;;;;;;2.63;100.00;99656.31;4920237;29;20432;-87
2021/12/18 03:50:19;;;;;;;38.13;19.50;;;;;;;2.90;100.00;99707.56;4937717;29;20178;-87
2021/12/18 03:52:44;;;;;;;39.80;19.93;;;;;;;2.63;100.00;99657.94;4941289;29;20429;-88
2021/12/18 03:55:10;;;;;;;38.17;19.30;;;;;;;2.14;100.00;99560.78;4919148;29;20876;-88
2021/12/18 03:57:36;;;;;;;38.80;20.07;;;;;;;2.08;100.00;99553.69;4937522;29;20185;-88
2021/12/18 04:00:03;;;;;;;48.10;24.10;;;;;;;3.01;100.00;99724.28;4919696;29;20197;-88
2021/12/18 04:02:29;;;;;;;37.40;19.23;;;;;;;1.57;100.00;99475.56;4937167;29;20217;-87
2021/12/18 04:04:54;;;;;;;30.30;16.50;;;;;;;1.52;100.00;99461.88;4919561;29;20425;-88
2021/12/18 04:07:20;;;;;;;27.50;14.47;;;;;;;3.04;100.00;99734.53;4919185;29;20185;-88
2021/12/18 04:09:48;;;;;;;23.93;12.40;;;;;;;2.88;100.00;99729.09;4919217;29;20181;-87
2021/12/18 04:12:13;;;;;;;22.37;11.87;;;;;;;0.33;100.00;99313.47;4937613;29;20165;-88
2021/12/18 04:14:40;;;;;;;23.13;11.97;;;;;;;2.86;100.00;99731.44;4937867;29;20445;-88
2021/12/18 04:17:06;;;;;;;25.50;11.93;;;;;;;2.92;100.00;99728.56;4919275;29;20795;-88
2021/12/18 04:19:31;;;;;;;25.80;12.67;;;;;;;0.37;100.00;99319.56;4903666;29;20430;-88
2021/12/18 04:21:57;;;;;;;28.73;13.70;;;;;;;1.59;100.00;99531.44;4934710;29;20205;-89
2021/12/18 04:24:23;;;;;;;34.23;16.30;;;;;;;2.82;100.00;99723.59;4934978;29;20177;-88
2021/12/18 04:26:51;;;;;;;30.13;14.20;;;;;;;2.75;100.00;99726.34;4936329;29;20201;-88
2021/12/18 04:29:16;;;;;;;24.10;12.03;;;;;;;1.45;100.00;99498.66;4919496;29;20433;-87
2021/12/18 04:31:45;;;;;;;23.47;11.53;;;;;;;-0.30;100.00;99211.19;4936364;29;20489;-88
2021/12/18 04:34:10;;;;;;;25.57;12.10;;;;;;;1.64;100.00;99545.19;4937378;29;20189;-87
2021/12/18 04:36:36;;;;;;;29.60;13.20;;;;;;;1.73;100.00;99555.03;4937951;29;20433;-88
2021/12/18 04:39:03;;;;;;;29.37;13.80;;;;;;;2.73;100.00;99753.72;4935824;29;20181;-88
2021/12/18 04:41:47;;;;;;;34.90;15.50;;;;;;;1.14;100.00;99487.84;4918954;29;20205;-88
2021/12/18 04:44:13;;;;;;;36.23;16.73;;;;;;;2.33;100.00;99681.38;4918926;29;20475;-88
2021/12/18 04:46:38;;;;;;;34.20;15.87;;;;;;;2.16;100.00;99646.69;4934753;29;20437;-88
2021/12/18 04:49:04;;;;;;;31.30;15.40;;;;;;;1.77;100.00;99579.47;4935687;29;20181;-89
2021/12/18 04:51:30;;;;;;;35.57;16.77;;;;;;;1.97;100.00;99651.81;4935915;29;20212;-88
2021/12/18 04:53:56;;;;;;;34.27;15.70;;;;;;;1.26;100.00;99543.69;4919484;29;20325;-90
2021/12/18 04:56:22;;;;;;;34.07;16.13;;;;;;;2.24;100.00;99713.09;4934734;29;20444;-87
2021/12/18 04:58:48;;;;;;;32.40;15.87;;;;;;;2.22;100.00;99689.63;4919123;29;20264;-89
2021/12/18 05:01:15;;;;;;;34.93;15.73;;;;;;;2.14;100.00;99671.50;4935561;29;20187;-88
2021/12/18 05:03:42;;;;;;;77.77;35.80;;;;;;;2.07;100.00;99658.41;4919089;29;20425;-88
2021/12/18 05:06:07;;;;;;;38.10;18.13;;;;;;;-0.73;100.00;99204.28;4938323;29;20417;-88
2021/12/18 05:08:34;;;;;;;35.10;16.33;;;;;;;0.04;100.00;99367.44;4919629;29;20462;-88
2021/12/18 05:11:00;;;;;;;32.33;16.10;;;;;;;2.54;100.00;99788.00;4919323;29;20264;-88
2021/12/18 05:13:25;;;;;;;37.73;17.00;;;;;;;1.36;100.00;99601.03;4919133;29;20547;-89
2021/12/18 05:15:52;;;;;;;37.07;16.63;;;;;;;2.59;100.00;99788.38;4937454;29;20253;-88
2021/12/18 05:18:17;;;;;;;40.97;18.90;;;;;;;1.66;100.00;99633.47;4939964;29;20173;-88
2021/12/18 05:20:44;;;;;;;37.80;17.90;;;;;;;1.26;100.00;99563.66;4934473;29;20425;-88
2021/12/18 05:23:09;;;;;;;39.60;18.97;;;;;;;2.66;100.00;99816.50;4929619;29;20700;-88
2021/12/18 05:25:36;;;;;;;38.40;18.77;;;;;;;2.65;100.00;99813.84;4938529;29;20414;-89
2021/12/18 05:28:02;;;;;;;54.63;25.73;;;;;;;2.79;100.00;99818.34;4922691;29;20189;-88
2021/12/18 05:30:29;;;;;;;50.90;23.50;;;;;;;0.98;100.00;99525.63;4918970;29;20433;-88
2021/12/18 05:32:54;;;;;;;59.50;28.77;;;;;;;1.31;100.00;99604.78;4940564;29;20177;-87
2021/12/18 05:35:20;;;;;;;49.00;24.40;;;;;;;2.87;100.00;99838.22;4934730;29;20444;-87
2021/12/18 05:37:48;;;;;;;43.53;22.10;;;;;;;2.07;100.00;99715.84;4940749;29;20170;-89
2021/12/18 05:40:18;;;;;;;38.37;19.80;;;;;;;-0.40;100.00;99310.63;4936605;29;20409;-89
2021/12/18 05:42:45;;;;;;;37.60;17.80;;;;;;;0.22;100.00;99413.75;4920677;29;20483;-88
2021/12/18 05:45:10;;;;;;;33.83;16.77;;;;;;;1.57;100.00;99655.19;4939804;29;20473;-89
2021/12/18 05:47:36;;;;;;;34.27;16.80;;;;;;;2.47;100.00;99803.25;4920177;29;20452;-89
2021/12/18 05:50:09;;;;;;;34.70;18.30;;;;;;;1.29;100.00;99597.94;4919374;29;20266;-91
2021/12/18 05:52:35;;;;;;;32.50;15.77;;;;;;;2.86;100.00;99866.44;4919453;29;20624;-88
2021/12/18 05:55:00;;;;;;;36.60;17.47;;;;;;;2.08;100.00;99730.97;4919490;29;20433;-88
2021/12/18 05:57:26;;;;;;;31.87;16.17;;;;;;;3.03;100.00;99864.41;4935184;29;20180;-90
2021/12/18 05:59:52;;;;;;;182.40;75.30;;;;;;;1.86;100.00;99696.63;4940234;29;20270;-88
2021/12/18 06:02:17;;;;;;;140.70;59.50;;;;;;;0.37;100.00;99491.34;4937279;29;21214;-88
2021/12/18 06:04:43;;;;;;;134.70;58.73;;;;;;;1.86;100.00;99772.38;4935347;29;20184;-89
2021/12/18 06:07:16;;;;;;;76.63;34.10;;;;;;;1.60;100.00;99726.91;4936223;29;20209;-88
2021/12/18 06:09:42;;;;;;;87.60;35.67;;;;;;;1.87;100.00;99803.22;4923840;29;20197;-88
2021/12/18 06:12:09;;;;;;;40.23;19.13;;;;;;;2.11;100.00;99835.19;4924254;29;20499;-90
2021/12/18 06:14:35;;;;;;;76.90;34.43;;;;;;;0.83;100.00;99653.00;4939741;29;20229;-89
2021/12/18 06:17:00;;;;;;;41.27;18.83;;;;;;;-1.09;100.00;99306.34;4940376;29;20429;-89
2021/12/18 06:19:26;;;;;;;56.00;26.73;;;;;;;0.85;100.00;99617.50;4923962;29;20177;-88
2021/12/18 06:21:52;;;;;;;45.63;19.73;;;;;;;2.30;100.00;99849.34;4939038;29;20213;-89
2021/12/18 06:24:18;;;;;;;30.00;12.93;;;;;;;1.95;100.00;99795.59;4906875;29;20189;-88
2021/12/18 06:26:44;;;;;;;35.83;19.60;;;;;;;2.19;100.00;99810.13;4923156;29;20518;-88
2021/12/18 06:29:13;;;;;;;33.97;18.60;;;;;;;2.50;100.00;99865.09;4935562;29;20185;-88
2021/12/18 06:31:39;;;;;;;38.00;18.20;;;;;;;2.69;100.00;99871.69;4940261;29;20425;-88
2021/12/18 06:34:05;;;;;;;36.70;16.87;;;;;;;0.82;100.00;99506.78;4938046;29;20405;-89
2021/12/18 06:36:31;;;;;;;31.07;15.33;;;;;;;1.55;100.00;99600.91;4935606;29;20413;-89
2021/12/18 06:38:57;;;;;;;33.27;15.80;;;;;;;3.12;100.00;99810.13;4926657;29;20481;-88
2021/12/18 06:41:23;;;;;;;34.63;17.07;;;;;;;2.26;100.00;99621.66;4939301;29;20234;-88
2021/12/18 06:43:48;;;;;;;30.57;14.70;;;;;;;3.31;100.00;99813.31;4939170;29;20418;-88
2021/12/18 06:46:14;;;;;;;26.20;11.50;;;;;;;3.55;100.00;99911.22;4922329;29;20177;-90
2021/12/18 06:48:40;;;;;;;27.40;13.03;;;;;;;1.95;100.00;99659.94;4923727;29;20185;-90
2021/12/18 06:51:05;;;;;;;29.97;15.33;;;;;;;3.38;100.00;99904.00;4939684;29;20181;-90
2021/12/18 06:53:31;;;;;;;42.73;25.40;;;;;;;3.22;100.00;99925.16;4941400;29;20320;-89
2021/12/18 06:55:57;;;;;;;27.60;14.13;;;;;;;1.67;100.00;99675.16;4922012;29;20329;-88
2021/12/18 06:58:22;;;;;;;26.47;12.77;;;;;;;3.24;100.00;99907.03;4921531;29;20185;-89
2021/12/18 07:00:52;;;;;;;150.70;50.90;;;;;;;2.27;100.00;99738.31;4922802;29;20426;-88
2021/12/18 07:03:20;;;;;;;112.10;53.47;;;;;;;1.60;100.00;99613.03;4921492;29;20228;-87
2021/12/18 07:05:46;;;;;;;113.57;53.43;;;;;;;3.32;100.00;99910.16;4921392;29;20441;-88
2021/12/18 07:08:12;;;;;;;51.83;27.07;;;;;;;3.32;100.00;99907.66;4937004;29;20504;-88
2021/12/18 07:10:39;;;;;;;94.23;47.83;;;;;;;2.85;100.00;99846.34;4904812;29;20457;-88
2021/12/18 07:13:04;;;;;;;23.13;11.13;;;;;;;1.55;100.00;99611.78;4921479;29;20647;-88
2021/12/18 07:15:30;;;;;;;23.23;11.00;;;;;;;3.03;100.00;99870.31;4921952;29;20441;-90
2021/12/18 07:17:55;;;;;;;40.33;17.60;;;;;;;1.82;100.00;99660.56;4924564;29;20170;-89
2021/12/18 07:20:20;;;;;;;39.10;16.50;;;;;;;3.41;100.00;99930.88;5300458;23;20415;-88
2021/12/18 07:22:47;;;;;;;31.30;14.87;;;;;;;3.44;100.00;99913.63;4939583;29;20205;-90
2021/12/18 07:25:13;;;;;;;19.07;9.03;;;;;;;2.66;100.00;99789.00;4906871;29;20193;-87
2021/12/18 07:27:38;;;;;;;23.13;11.07;;;;;;;1.33;100.00;99584.94;4921152;29;20413;-89
2021/12/18 07:30:04;;;;;;;26.90;12.87;;;;;;;3.31;100.00;99928.41;4921331;29;20572;-88
2021/12/18 07:32:30;;;;;;;58.57;33.10;;;;;;;1.59;100.00;99616.25;4923611;29;20185;-88
2021/12/18 07:34:56;;;;;;;80.97;44.07;;;;;;;3.33;100.00;99927.78;4939981;29;20417;-89
2021/12/18 07:37:24;;;;;;;68.87;36.80;;;;;;;1.70;100.00;99674.53;4927720;29;20189;-89
2021/12/18 07:39:51;;;;;;;55.10;27.30;;;;;;;2.24;100.00;99743.06;4931008;29;20437;-89
2021/12/18 07:42:17;;;;;;;26.00;12.40;;;;;;;1.84;100.00;99705.63;4924117;29;20484;-89
2021/12/18 07:44:42;;;;;;;26.40;12.20;;;;;;;2.10;100.00;99728.56;4937629;29;20433;-89
2021/12/18 07:47:09;;;;;;;22.67;10.67;;;;;;;3.36;100.00;99955.56;4922853;29;20201;-90
2021/12/18 07:49:35;;;;;;;24.07;10.13;;;;;;;2.94;100.00;99885.44;4908604;29;20181;-87
2021/12/18 07:52:03;;;;;;;20.77;10.70;;;;;;;2.83;100.00;99862.84;4926795;29;20433;-88
2021/12/18 07:54:29;;;;;;;32.47;17.30;;;;;;;3.42;100.00;99952.66;4911070;29;20253;-88
2021/12/18 07:56:54;;;;;;;32.70;16.23;;;;;;;2.84;100.00;99857.97;4918616;29;20497;-89
2021/12/18 07:59:19;;;;;;;56.90;19.70;;;;;;;3.41;100.00;99976.81;4917831;29;20186;-88
2021/12/18 08:01:46;;;;;;;51.57;24.30;;;;;;;2.20;100.00;99766.03;4913809;29;20197;-87
2021/12/18 08:04:12;;;;;;;24.40;11.77;;;;;;;1.73;100.00;99670.66;4934048;29;20239;-88
2021/12/18 08:06:40;;;;;;;52.80;26.00;;;;;;;3.08;100.00;99938.22;4922333;29;20520;-88
2021/12/18 08:09:05;;;;;;;33.13;16.53;;;;;;;3.47;100.00;99962.28;4920681;29;20272;-88
2021/12/18 08:11:31;;;;;;;26.87;13.23;;;;;;;3.79;100.00;99987.38;4936815;29;20437;-89
2021/12/18 08:13:57;;;;;;;29.23;14.80;;;;;;;3.81;100.00;99985.88;4919695;29;20181;-89
2021/12/18 08:16:23;;;;;;;21.20;10.93;;;;;;;3.89;100.00;100002.38;4911167;29;20185;-88
2021/12/18 08:18:48;;;;;;;19.53;9.87;;;;;;;3.69;100.00;99947.34;4917880;29;20414;-87
2021/12/18 08:21:14;;;;;;;20.33;9.67;;;;;;;2.34;100.00;99690.59;4915927;29;20225;-87
2021/12/18 08:23:41;;;;;;;19.40;9.83;;;;;;;3.46;100.00;99892.13;4916318;29;20182;-88
2021/12/18 08:26:07;;;;;;;18.97;8.90;;;;;;;3.16;100.00;99833.00;4915817;29;20446;-87
2021/12/18 08:28:33;;;;;;;18.33;9.30;;;;;;;3.75;100.00;99944.44;4900535;29;20536;-88
2021/12/18 08:30:59;;;;;;;17.57;8.17;;;;;;;2.74;100.00;99810.47;4904341;29;20178;-88
2021/12/18 08:33:24;;;;;;;17.47;8.73;;;;;;;2.88;100.00;99847.44;4919429;29;20214;-88
2021/12/18 08:35:50;;;;;;;21.80;10.93;;;;;;;3.57;100.00;99921.38;4901876;29;20178;-88
2021/12/18 08:38:15;;;;;;;18.90;10.97;;;;;;;4.29;100.00;100010.50;4904492;29;20190;-87
2021/12/18 08:40:42;;;;;;;22.37;11.50;;;;;;;3.82;100.00;99940.03;4905870;29;20186;-89
2021/12/18 08:43:11;;;;;;;18.17;9.70;;;;;;;4.30;100.00;100008.13;4901893;29;20244;-89
2021/12/18 08:45:37;;;;;;;19.67;10.53;;;;;;;1.44;100.00;99505.28;4918238;29;20410;-87
2021/12/18 08:48:03;;;;;;;22.13;10.93;;;;;;;4.83;100.00;100017.25;4917907;29;20429;-89
2021/12/18 08:50:28;;;;;;;21.80;10.70;;;;;;;3.37;100.00;99709.59;4917581;29;20687;-88
2021/12/18 08:52:54;;;;;;;18.73;10.17;;;;;;;5.79;100.00;100008.53;4900603;29;20659;-88
2021/12/18 08:55:22;;;;;;;19.80;10.70;;;;;;;4.52;100.00;99785.03;4894100;29;20197;-86
2021/12/18 08:57:49;;;;;;;23.97;12.07;;;;;;;3.34;100.00;99638.44;4914051;29;20193;-88
2021/12/18 09:00:17;;;;;;;27.17;14.33;;;;;;;1.82;100.00;99517.41;4915006;29;20481;-87
2021/12/18 09:02:46;;;;;;;23.67;11.93;;;;;;;4.90;100.00;100034.50;4910204;29;20466;-89
2021/12/18 09:05:11;;;;;;;27.73;13.50;;;;;;;1.69;100.00;99506.50;4926860;29;20978;-87
2021/12/18 09:07:38;;;;;;;29.57;13.80;;;;;;;4.68;100.00;100031.13;4904154;29;20418;-86
2021/12/18 09:10:07;;;;;;;25.13;13.03;;;;;;;4.64;100.00;99974.84;4891350;29;20178;-88
2021/12/18 09:12:32;;;;;;;22.07;11.13;;;;;;;3.27;100.00;99761.31;4903278;29;20441;-88
2021/12/18 09:14:58;;;;;;;22.83;10.03;;;;;;;3.46;100.00;99814.53;4901796;29;20426;-87
2021/12/18 09:17:23;;;;;;;24.77;11.37;;;;;;;3.27;100.00;99793.84;4918230;29;20170;-87
2021/12/18 09:19:50;;;;;;;38.73;19.60;;;;;;;3.55;100.00;99782.69;4898753;29;20190;-88
2021/12/18 09:22:17;;;;;;;33.50;16.93;;;;;;;2.03;100.00;99454.22;4908144;29;20276;-91
2021/12/18 09:24:42;;;;;;;31.03;16.80;;;;;;;1.97;100.00;99441.25;4912310;29;20466;-89
2021/12/18 09:27:08;;;;;;;62.87;33.90;;;;;;;2.71;100.00;99506.94;4929145;29;20429;-89
2021/12/18 09:29:35;;;;;;;59.57;34.33;;;;;;;2.18;100.00;99401.34;4931571;29;20178;-89
2021/12/18 09:32:06;;;;;;;48.03;26.30;;;;;;;5.63;100.00;100019.88;4911690;29;20498;-89
2021/12/18 09:34:33;;;;;;;35.73;20.33;;;;;;;1.38;100.00;99270.38;4925838;29;20422;-89
2021/12/18 09:36:59;;;;;;;32.50;15.57;;;;;;;4.39;100.00;99815.84;4915700;29;20437;-89
2021/12/18 09:39:25;;;;;;;42.40;21.37;;;;;;;3.31;100.00;99653.22;4927115;29;20489;-89
2021/12/18 09:41:52;;;;;;;42.87;22.87;;;;;;;3.91;100.00;99752.94;4931010;29;20200;-88
2021/12/18 09:44:26;;;;;;;37.70;18.77;;;;;;;5.18;100.00;100042.47;4935374;29;20437;-88
2021/12/18 09:46:53;;;;;;;26.80;14.93;;;;;;;2.03;100.00;99469.22;4934995;29;20437;-90
2021/12/18 09:49:20;;;;;;;25.93;12.97;;;;;;;1.40;100.00;99403.53;4935265;29;20920;-90
2021/12/18 09:51:46;;;;;;;22.53;12.67;;;;;;;2.16;100.00;99479.38;4928125;29;20894;-88
2021/12/18 09:54:12;;;;;;;34.90;17.47;;;;;;;1.84;100.00;99348.75;4919236;29;20414;-89
2021/12/18 09:56:39;;;;;;;25.73;15.07;;;;;;;4.39;100.00;99815.84;4935833;29;20789;-87
2021/12/18 09:59:05;;;;;;;25.23;13.40;;;;;;;3.79;100.00;99726.13;4960452;23;20264;-89
2021/12/18 10:01:31;;;;;;;26.40;14.50;;;;;;;4.60;100.00;99880.09;4929464;29;20430;-88
2021/12/18 10:03:59;;;;;;;31.57;16.00;;;;;;;4.12;100.00;99813.81;4911261;29;20510;-87
2021/12/18 10:06:34;;;;;;;26.63;13.97;;;;;;;5.33;100.00;100019.38;4900978;29;20443;-87
2021/12/18 10:09:05;;;;;;;20.60;11.77;;;;;;;3.50;100.00;99681.38;4901134;29;20844;-88
2021/12/18 10:11:31;;;;;;;74.47;35.37;;;;;;;3.96;100.00;99643.97;4905081;29;20971;-87
2021/12/18 10:14:04;;;;;;;89.27;38.80;;;;;;;6.26;100.00;99971.69;4915916;29;20443;-89
2021/12/18 10:16:31;;;;;;;43.50;22.47;;;;;;;4.89;98.13;99848.78;4921697;29;20186;-86
2021/12/18 10:18:58;;;;;;;80.13;34.93;;;;;;;3.77;98.79;99668.41;4905302;29;20466;-85
2021/12/18 10:21:29;;;;;;;77.87;39.23;;;;;;;6.33;98.46;100013.22;4922806;29;20430;-87
2021/12/18 10:23:58;;;;;;;125.73;59.70;;;;;;;5.09;96.75;99809.28;5014473;23;20493;-86
2021/12/18 10:26:37;;;;;;;121.83;56.80;;;;;;;5.98;96.93;99960.50;4913813;29;20463;-89
2021/12/18 10:29:21;;;;;;;115.70;53.57;;;;;;;5.15;96.51;99866.56;4916722;29;20556;-88
2021/12/18 10:31:47;;;;;;;103.03;49.20;;;;;;;5.41;96.16;99876.84;4913837;29;20415;-88
2021/12/18 10:34:19;;;;;;;71.63;37.20;;;;;;;5.30;95.37;99883.59;4946351;29;20548;-89
2021/12/18 10:37:11;;;;;;;73.13;37.07;;;;;;;6.07;95.60;100018.91;4946544;29;20413;-88
2021/12/18 10:39:40;;;;;;;92.83;47.63;;;;;;;3.83;94.97;99662.97;4958048;29;20410;-88
2021/12/18 10:42:22;;;;;;;52.70;26.93;;;;;;;4.34;95.37;99703.50;4937878;29;20457;-87
2021/12/18 10:45:02;;;;;;;29.10;15.57;;;;;;;5.32;93.81;99862.00;4938362;29;20437;-87
2021/12/18 10:47:56;;;;;;;36.03;21.50;;;;;;;4.32;93.46;99667.41;4941020;29;20456;-87
2021/12/18 10:50:23;;;;;;;27.93;15.13;;;;;;;2.82;91.80;99394.50;4950194;29;20424;-86
2021/12/18 10:52:57;;;;;;;40.13;24.80;;;;;;;4.61;91.98;99708.00;4947223;29;20440;-88
2021/12/18 10:55:43;;;;;;;84.50;52.37;;;;;;;4.50;94.06;99716.38;4942910;29;20425;-88
2021/12/18 10:58:15;;;;;;;20.30;9.83;;;;;;;4.98;94.36;99852.81;4935634;29;20422;-87
2021/12/18 11:00:55;;;;;;;17.83;10.10;;;;;;;3.55;97.91;99635.03;4934934;29;20430;-89
2021/12/18 11:03:29;;;;;;;14.83;7.90;;;;;;;5.74;99.59;100014.00;4936528;29;20475;-92
2021/12/18 11:06:02;;;;;;;10.43;6.60;;;;;;;3.19;100.00;99684.78;4936659;29;20460;-90
2021/12/18 11:08:28;;;;;;;10.63;5.30;;;;;;;3.31;100.00;99756.66;4956045;29;20425;-89
2021/12/18 11:13:53;;;;;;;10.40;6.40;;;;;;;2.50;100.00;99652.72;4948339;29;20233;-88
2021/12/18 11:16:20;;;;;;;13.73;7.60;;;;;;;2.41;100.00;99662.88;4954122;29;20433;-89
2021/12/18 11:18:46;;;;;;;10.17;6.30;;;;;;;2.22;100.00;99647.16;4944637;29;20429;-86
2021/12/18 11:21:13;;;;;;;22.33;12.53;;;;;;;2.81;100.00;99712.72;4941747;29;20445;-86
2021/12/18 11:23:56;;;;;;;13.73;7.23;;;;;;;4.07;100.00;99942.81;4957501;29;20492;-88
2021/12/18 11:26:23;;;;;;;28.77;17.70;;;;;;;2.91;100.00;99739.31;4968263;29;20479;-89
2021/12/18 11:28:51;;;;;;;52.33;30.30;;;;;;;0.87;100.00;99405.88;4952039;29;20428;-89
2021/12/18 11:31:18;;;;;;;277.87;124.17;;;;;;;2.62;100.00;99704.53;4933286;29;20441;-88
2021/12/18 11:33:44;;;;;;;40.37;20.43;;;;;;;2.47;100.00;99663.34;4947881;29;20440;-89
2021/12/18 11:36:11;;;;;;;69.83;34.73;;;;;;;4.45;100.00;99980.88;4947847;29;20402;-88
2021/12/18 11:38:42;;;;;;;133.17;60.80;;;;;;;2.23;100.00;99623.91;4952741;29;20421;-90
2021/12/18 11:41:14;;;;;;;76.17;39.07;;;;;;;2.96;100.00;99713.94;4952102;29;20484;-89
2021/12/18 11:43:43;;;;;;;75.77;39.10;;;;;;;3.36;100.00;99790.41;4951936;29;20456;-88
2021/12/18 11:46:37;;;;;;;87.07;41.90;;;;;;;4.53;100.00;99992.34;4953032;29;20798;-88
2021/12/18 11:49:06;;;;;;;87.43;40.93;;;;;;;3.03;100.00;99734.38;4954309;29;20416;-87
2021/12/18 11:51:32;;;;;;;69.97;37.03;;;;;;;2.01;100.00;99568.03;4946258;29;20422;-88
2021/12/18 11:53:59;;;;;;;66.90;36.07;;;;;;;3.31;100.00;99775.81;4949537;29;20436;-87
2021/12/18 11:56:26;;;;;;;116.57;54.67;;;;;;;0.84;100.00;99359.16;4952771;28;20465;-89
2021/12/18 11:58:53;;;;;;;38.57;18.80;;;;;;;0.75;100.00;99321.03;4933595;29;20421;-89